This is the latest recevied weather packets stored in our database for station/object DG1GMY-13. If no packets are shown the sender has not sent any weather packets the latest 10 day(s).
| Time | Temp. | Humidity | Pressure | Rain* | Wind** | Luminosity | Snow |
|---|---|---|---|---|---|---|---|
| 1777497820 | 11.67° C | 37% | 1023.7 hPa | - | - | - | - |
| 1777496014 | 12.78° C | 35% | 1023.4 hPa | - | - | - | - |
| 1777494208 | 13.33° C | 31% | 1023.2 hPa | - | - | - | - |
| 1777492402 | 13.33° C | 32% | 1023 hPa | - | - | - | - |
| 1777490596 | 14.44° C | 31% | 1022.6 hPa | - | - | - | - |
| 1777488790 | 15° C | 29% | 1022.3 hPa | - | - | - | - |
| 1777486984 | 16.11° C | 28% | 1021.7 hPa | - | - | - | - |
| 1777485178 | 16.67° C | 29% | 1021.4 hPa | - | - | - | - |
| 1777483372 | 17.22° C | 29% | 1021.2 hPa | - | - | - | - |
| 1777481566 | 17.78° C | 29% | 1021.3 hPa | - | - | - | - |
| 1777479760 | 18.33° C | 29% | 1021 hPa | - | - | - | - |
| 1777477954 | 18.89° C | 31% | 1020.9 hPa | - | - | - | - |
| 1777476148 | 18.89° C | 32% | 1021 hPa | - | - | - | - |
| 1777474342 | 18.89° C | 33% | 1020.9 hPa | - | - | - | - |
| 1777472536 | 18.89° C | 34% | 1020.7 hPa | - | - | - | - |
| 1777470730 | 18.89° C | 34% | 1021 hPa | - | - | - | - |
| 1777468924 | 18.89° C | 35% | 1020.8 hPa | - | - | - | - |
| 1777467118 | 18.89° C | 36% | 1020.9 hPa | - | - | - | - |
| 1777465312 | 18.89° C | 37% | 1020.9 hPa | - | - | - | - |
| 1777463506 | 18.33° C | 38% | 1021 hPa | - | - | - | - |
| 1777461700 | 18.33° C | 38% | 1021.1 hPa | - | - | - | - |
| 1777459894 | 17.22° C | 40% | 1021.1 hPa | - | - | - | - |
| 1777458088 | 16.67° C | 42% | 1021.3 hPa | - | - | - | - |
| 1777456282 | 16.11° C | 43% | 1021.3 hPa | - | - | - | - |
| 1777454476 | 15° C | 45% | 1021.4 hPa | - | - | - | - |
* Rain since midnight (hover to see other rain measurements)
** Current wind speed in m/s (hover to see current wind gust speed)